sensor_id;sensor_type;location;lat;lon;timestamp;temperature;humidity
23405;DHT22;11875;49.356;2.718;2023-05-21T00:02:03;17.70;99.90
23405;DHT22;11875;49.356;2.718;2023-05-21T00:04:29;17.70;99.90
23405;DHT22;11875;49.356;2.718;2023-05-21T00:06:56;17.70;99.90
23405;DHT22;11875;49.356;2.718;2023-05-21T00:09:23;17.70;99.90
23405;DHT22;11875;49.356;2.718;2023-05-21T00:11:49;17.60;99.90
23405;DHT22;11875;49.356;2.718;2023-05-21T00:14:14;17.60;99.90
23405;DHT22;11875;49.356;2.718;2023-05-21T00:16:40;17.60;99.90
23405;DHT22;11875;49.356;2.718;2023-05-21T00:19:05;17.70;99.90
23405;DHT22;11875;49.356;2.718;2023-05-21T00:21:32;17.60;99.90
23405;DHT22;11875;49.356;2.718;2023-05-21T00:23:58;17.60;99.90
23405;DHT22;11875;49.356;2.718;2023-05-21T00:26:24;17.60;99.90
23405;DHT22;11875;49.356;2.718;2023-05-21T00:28:49;17.50;99.90
23405;DHT22;11875;49.356;2.718;2023-05-21T00:31:15;17.50;99.90
23405;DHT22;11875;49.356;2.718;2023-05-21T00:33:41;17.50;99.90
23405;DHT22;11875;49.356;2.718;2023-05-21T00:36:07;17.40;99.90
23405;DHT22;11875;49.356;2.718;2023-05-21T00:38:33;17.40;99.90
23405;DHT22;11875;49.356;2.718;2023-05-21T00:41:01;17.40;99.90
23405;DHT22;11875;49.356;2.718;2023-05-21T00:43:26;17.30;99.90
23405;DHT22;11875;49.356;2.718;2023-05-21T00:45:52;17.20;99.90
23405;DHT22;11875;49.356;2.718;2023-05-21T00:48:19;17.10;99.90
23405;DHT22;11875;49.356;2.718;2023-05-21T00:50:45;17.00;99.90
23405;DHT22;11875;49.356;2.718;2023-05-21T00:53:12;16.90;99.90
23405;DHT22;11875;49.356;2.718;2023-05-21T00:55:39;17.00;99.90
23405;DHT22;11875;49.356;2.718;2023-05-21T00:58:06;17.00;99.90
23405;DHT22;11875;49.356;2.718;2023-05-21T01:00:35;17.00;99.90
23405;DHT22;11875;49.356;2.718;2023-05-21T01:03:02;17.00;99.90
23405;DHT22;11875;49.356;2.718;2023-05-21T01:05:28;16.90;99.90
23405;DHT22;11875;49.356;2.718;2023-05-21T01:07:55;16.90;99.90
23405;DHT22;11875;49.356;2.718;2023-05-21T01:10:23;16.90;99.90
23405;DHT22;11875;49.356;2.718;2023-05-21T01:12:48;17.00;99.90
23405;DHT22;11875;49.356;2.718;2023-05-21T01:15:15;16.90;99.90
23405;DHT22;11875;49.356;2.718;2023-05-21T01:17:41;17.00;99.90
23405;DHT22;11875;49.356;2.718;2023-05-21T01:20:07;16.90;99.90
23405;DHT22;11875;49.356;2.718;2023-05-21T01:22:40;16.80;99.90
23405;DHT22;11875;49.356;2.718;2023-05-21T01:25:06;16.80;99.90
23405;DHT22;11875;49.356;2.718;2023-05-21T01:27:32;16.80;99.90
23405;DHT22;11875;49.356;2.718;2023-05-21T01:29:58;16.80;99.90
23405;DHT22;11875;49.356;2.718;2023-05-21T01:35:07;16.60;99.90
23405;DHT22;11875;49.356;2.718;2023-05-21T01:37:47;16.60;99.90
23405;DHT22;11875;49.356;2.718;2023-05-21T01:42:51;16.60;99.90
23405;DHT22;11875;49.356;2.718;2023-05-21T01:45:17;16.70;99.90
23405;DHT22;11875;49.356;2.718;2023-05-21T01:47:46;16.70;99.90
23405;DHT22;11875;49.356;2.718;2023-05-21T01:50:13;16.60;99.90
23405;DHT22;11875;49.356;2.718;2023-05-21T01:52:50;16.70;99.90
23405;DHT22;11875;49.356;2.718;2023-05-21T01:55:17;16.60;99.90
23405;DHT22;11875;49.356;2.718;2023-05-21T01:57:43;16.60;99.90
23405;DHT22;11875;49.356;2.718;2023-05-21T02:00:10;16.60;99.90
23405;DHT22;11875;49.356;2.718;2023-05-21T02:02:36;16.50;99.90
23405;DHT22;11875;49.356;2.718;2023-05-21T02:05:02;16.40;99.90
23405;DHT22;11875;49.356;2.718;2023-05-21T02:07:28;16.40;99.90
23405;DHT22;11875;49.356;2.718;2023-05-21T02:09:56;16.30;99.90
23405;DHT22;11875;49.356;2.718;2023-05-21T02:12:22;16.20;99.90
23405;DHT22;11875;49.356;2.718;2023-05-21T02:14:47;16.20;99.90
23405;DHT22;11875;49.356;2.718;2023-05-21T02:17:15;16.20;99.90
23405;DHT22;11875;49.356;2.718;2023-05-21T02:19:41;16.10;99.90
23405;DHT22;11875;49.356;2.718;2023-05-21T02:22:09;16.20;99.90
23405;DHT22;11875;49.356;2.718;2023-05-21T02:24:35;16.30;99.90
23405;DHT22;11875;49.356;2.718;2023-05-21T02:27:01;16.30;99.90
23405;DHT22;11875;49.356;2.718;2023-05-21T02:29:27;16.30;99.90
23405;DHT22;11875;49.356;2.718;2023-05-21T02:31:53;16.20;99.90
23405;DHT22;11875;49.356;2.718;2023-05-21T02:34:19;16.20;99.90
23405;DHT22;11875;49.356;2.718;2023-05-21T02:36:49;16.20;99.90
23405;DHT22;11875;49.356;2.718;2023-05-21T02:39:18;16.20;99.90
23405;DHT22;11875;49.356;2.718;2023-05-21T02:41:44;16.20;99.90
23405;DHT22;11875;49.356;2.718;2023-05-21T02:44:11;16.10;99.90
23405;DHT22;11875;49.356;2.718;2023-05-21T02:46:36;16.10;99.90
23405;DHT22;11875;49.356;2.718;2023-05-21T02:49:02;16.10;99.90
23405;DHT22;11875;49.356;2.718;2023-05-21T02:51:28;16.00;99.90
23405;DHT22;11875;49.356;2.718;2023-05-21T02:53:53;16.10;99.90
23405;DHT22;11875;49.356;2.718;2023-05-21T02:56:19;16.10;99.90
23405;DHT22;11875;49.356;2.718;2023-05-21T02:58:44;16.10;99.90
23405;DHT22;11875;49.356;2.718;2023-05-21T03:01:11;16.00;99.90
23405;DHT22;11875;49.356;2.718;2023-05-21T03:03:36;16.00;99.90
23405;DHT22;11875;49.356;2.718;2023-05-21T03:06:02;16.00;99.90
23405;DHT22;11875;49.356;2.718;2023-05-21T03:08:27;16.00;99.90
23405;DHT22;11875;49.356;2.718;2023-05-21T03:10:53;16.00;99.90
23405;DHT22;11875;49.356;2.718;2023-05-21T03:13:19;16.00;99.90
23405;DHT22;11875;49.356;2.718;2023-05-21T03:15:45;16.00;99.90
23405;DHT22;11875;49.356;2.718;2023-05-21T03:18:11;16.00;99.90
23405;DHT22;11875;49.356;2.718;2023-05-21T03:20:37;16.00;99.90
23405;DHT22;11875;49.356;2.718;2023-05-21T03:23:08;16.00;99.90
23405;DHT22;11875;49.356;2.718;2023-05-21T03:25:34;16.00;99.90
23405;DHT22;11875;49.356;2.718;2023-05-21T03:28:01;16.00;99.90
23405;DHT22;11875;49.356;2.718;2023-05-21T03:30:26;15.90;99.90
23405;DHT22;11875;49.356;2.718;2023-05-21T03:32:52;15.90;99.90
23405;DHT22;11875;49.356;2.718;2023-05-21T03:35:18;15.90;99.90
23405;DHT22;11875;49.356;2.718;2023-05-21T03:37:43;15.90;99.90
23405;DHT22;11875;49.356;2.718;2023-05-21T03:40:09;15.90;99.90
23405;DHT22;11875;49.356;2.718;2023-05-21T03:42:35;15.80;99.90
23405;DHT22;11875;49.356;2.718;2023-05-21T03:45:02;15.80;99.90
23405;DHT22;11875;49.356;2.718;2023-05-21T03:47:27;15.80;99.90
23405;DHT22;11875;49.356;2.718;2023-05-21T03:49:53;15.70;99.90
23405;DHT22;11875;49.356;2.718;2023-05-21T03:52:18;15.70;99.90
23405;DHT22;11875;49.356;2.718;2023-05-21T03:54:44;15.80;99.90
23405;DHT22;11875;49.356;2.718;2023-05-21T03:57:10;15.70;99.90
23405;DHT22;11875;49.356;2.718;2023-05-21T03:59:35;15.80;99.90
23405;DHT22;11875;49.356;2.718;2023-05-21T04:02:01;15.70;99.90
23405;DHT22;11875;49.356;2.718;2023-05-21T04:04:27;15.70;99.90
23405;DHT22;11875;49.356;2.718;2023-05-21T04:06:53;15.60;99.90
23405;DHT22;11875;49.356;2.718;2023-05-21T04:09:20;15.60;99.90
23405;DHT22;11875;49.356;2.718;2023-05-21T04:11:45;15.70;99.90
23405;DHT22;11875;49.356;2.718;2023-05-21T04:14:12;15.70;99.90
23405;DHT22;11875;49.356;2.718;2023-05-21T04:16:37;15.60;99.90
23405;DHT22;11875;49.356;2.718;2023-05-21T04:19:04;15.80;99.90
23405;DHT22;11875;49.356;2.718;2023-05-21T04:21:29;15.60;99.90
23405;DHT22;11875;49.356;2.718;2023-05-21T04:23:56;15.70;99.90
23405;DHT22;11875;49.356;2.718;2023-05-21T04:26:22;15.70;99.90
23405;DHT22;11875;49.356;2.718;2023-05-21T04:28:49;15.70;99.90
23405;DHT22;11875;49.356;2.718;2023-05-21T04:31:15;15.60;99.90
23405;DHT22;11875;49.356;2.718;2023-05-21T04:33:41;15.60;99.90
23405;DHT22;11875;49.356;2.718;2023-05-21T04:36:10;15.60;99.90
23405;DHT22;11875;49.356;2.718;2023-05-21T04:38:36;15.50;99.90
23405;DHT22;11875;49.356;2.718;2023-05-21T04:41:03;15.50;99.90
23405;DHT22;11875;49.356;2.718;2023-05-21T04:43:29;15.40;99.90
23405;DHT22;11875;49.356;2.718;2023-05-21T04:45:54;15.50;99.90
23405;DHT22;11875;49.356;2.718;2023-05-21T04:48:23;15.40;99.90
23405;DHT22;11875;49.356;2.718;2023-05-21T04:50:49;15.30;99.90
23405;DHT22;11875;49.356;2.718;2023-05-21T04:53:15;15.20;99.90
23405;DHT22;11875;49.356;2.718;2023-05-21T04:55:41;15.10;99.90
23405;DHT22;11875;49.356;2.718;2023-05-21T04:58:07;15.10;99.90
23405;DHT22;11875;49.356;2.718;2023-05-21T05:00:36;15.20;99.90
23405;DHT22;11875;49.356;2.718;2023-05-21T05:03:02;15.20;99.90
23405;DHT22;11875;49.356;2.718;2023-05-21T05:05:28;15.30;99.90
23405;DHT22;11875;49.356;2.718;2023-05-21T05:07:53;15.30;99.90
23405;DHT22;11875;49.356;2.718;2023-05-21T05:10:19;15.30;99.90
23405;DHT22;11875;49.356;2.718;2023-05-21T05:12:45;15.30;99.90
23405;DHT22;11875;49.356;2.718;2023-05-21T05:15:10;15.40;99.90
23405;DHT22;11875;49.356;2.718;2023-05-21T05:17:36;15.40;99.90
23405;DHT22;11875;49.356;2.718;2023-05-21T05:20:01;15.40;99.90
23405;DHT22;11875;49.356;2.718;2023-05-21T05:22:27;15.40;99.90
23405;DHT22;11875;49.356;2.718;2023-05-21T05:24:53;15.30;99.90
23405;DHT22;11875;49.356;2.718;2023-05-21T05:27:19;15.50;99.90
23405;DHT22;11875;49.356;2.718;2023-05-21T05:29:44;15.50;99.90
23405;DHT22;11875;49.356;2.718;2023-05-21T05:32:10;15.40;99.90
23405;DHT22;11875;49.356;2.718;2023-05-21T05:34:36;15.50;99.90
23405;DHT22;11875;49.356;2.718;2023-05-21T05:37:02;15.50;99.90
23405;DHT22;11875;49.356;2.718;2023-05-21T05:39:28;15.50;99.90
23405;DHT22;11875;49.356;2.718;2023-05-21T05:41:54;15.50;99.90
23405;DHT22;11875;49.356;2.718;2023-05-21T05:44:20;15.60;99.90
23405;DHT22;11875;49.356;2.718;2023-05-21T05:46:45;15.60;99.90
23405;DHT22;11875;49.356;2.718;2023-05-21T05:49:11;15.60;99.90
23405;DHT22;11875;49.356;2.718;2023-05-21T05:51:38;15.60;99.90
23405;DHT22;11875;49.356;2.718;2023-05-21T05:54:03;15.70;99.90
23405;DHT22;11875;49.356;2.718;2023-05-21T05:56:29;15.70;99.90
23405;DHT22;11875;49.356;2.718;2023-05-21T05:58:55;15.80;99.90
23405;DHT22;11875;49.356;2.718;2023-05-21T06:01:20;15.80;99.90
23405;DHT22;11875;49.356;2.718;2023-05-21T06:03:49;15.80;99.90
23405;DHT22;11875;49.356;2.718;2023-05-21T06:06:15;15.80;99.90
23405;DHT22;11875;49.356;2.718;2023-05-21T06:08:41;15.80;99.90
23405;DHT22;11875;49.356;2.718;2023-05-21T06:11:07;15.90;99.90
23405;DHT22;11875;49.356;2.718;2023-05-21T06:13:34;16.00;99.90
23405;DHT22;11875;49.356;2.718;2023-05-21T06:15:59;16.00;99.90
23405;DHT22;11875;49.356;2.718;2023-05-21T06:18:25;16.10;99.90
23405;DHT22;11875;49.356;2.718;2023-05-21T06:20:51;16.10;99.90
23405;DHT22;11875;49.356;2.718;2023-05-21T06:23:16;16.10;99.90
23405;DHT22;11875;49.356;2.718;2023-05-21T06:25:42;16.20;99.90
23405;DHT22;11875;49.356;2.718;2023-05-21T06:28:07;16.20;99.90
23405;DHT22;11875;49.356;2.718;2023-05-21T06:30:33;16.30;99.90
23405;DHT22;11875;49.356;2.718;2023-05-21T06:32:59;16.30;99.90
23405;DHT22;11875;49.356;2.718;2023-05-21T06:35:24;16.30;99.90
23405;DHT22;11875;49.356;2.718;2023-05-21T06:37:50;16.30;99.90
23405;DHT22;11875;49.356;2.718;2023-05-21T06:40:16;16.30;99.90
23405;DHT22;11875;49.356;2.718;2023-05-21T06:42:41;16.40;99.90
23405;DHT22;11875;49.356;2.718;2023-05-21T06:45:07;16.30;99.90
23405;DHT22;11875;49.356;2.718;2023-05-21T06:47:33;16.30;99.90
23405;DHT22;11875;49.356;2.718;2023-05-21T06:49:58;16.30;99.90
23405;DHT22;11875;49.356;2.718;2023-05-21T06:52:24;16.40;99.90
23405;DHT22;11875;49.356;2.718;2023-05-21T06:54:51;16.50;99.90
23405;DHT22;11875;49.356;2.718;2023-05-21T06:57:17;16.70;99.90
23405;DHT22;11875;49.356;2.718;2023-05-21T06:59:42;16.80;99.90
23405;DHT22;11875;49.356;2.718;2023-05-21T07:02:08;16.90;99.90
23405;DHT22;11875;49.356;2.718;2023-05-21T07:04:33;16.90;99.90
23405;DHT22;11875;49.356;2.718;2023-05-21T07:07:00;16.90;99.90
23405;DHT22;11875;49.356;2.718;2023-05-21T07:09:26;17.00;99.90
23405;DHT22;11875;49.356;2.718;2023-05-21T07:11:51;17.20;99.90
23405;DHT22;11875;49.356;2.718;2023-05-21T07:14:18;17.30;99.90
23405;DHT22;11875;49.356;2.718;2023-05-21T07:16:43;17.60;99.90
23405;DHT22;11875;49.356;2.718;2023-05-21T07:19:09;17.80;99.90
23405;DHT22;11875;49.356;2.718;2023-05-21T07:21:34;17.90;99.90
23405;DHT22;11875;49.356;2.718;2023-05-21T07:24:00;18.00;99.90
23405;DHT22;11875;49.356;2.718;2023-05-21T07:26:26;18.00;99.90
23405;DHT22;11875;49.356;2.718;2023-05-21T07:28:51;18.10;99.90
23405;DHT22;11875;49.356;2.718;2023-05-21T07:31:17;18.20;99.90
23405;DHT22;11875;49.356;2.718;2023-05-21T07:33:42;18.20;99.90
23405;DHT22;11875;49.356;2.718;2023-05-21T07:36:08;18.30;99.90
23405;DHT22;11875;49.356;2.718;2023-05-21T07:38:34;18.30;99.90
23405;DHT22;11875;49.356;2.718;2023-05-21T07:40:59;18.50;99.90
23405;DHT22;11875;49.356;2.718;2023-05-21T07:43:25;18.50;99.90
23405;DHT22;11875;49.356;2.718;2023-05-21T07:45:50;18.60;99.90
23405;DHT22;11875;49.356;2.718;2023-05-21T07:48:17;18.60;99.90
23405;DHT22;11875;49.356;2.718;2023-05-21T07:50:43;18.70;99.90
23405;DHT22;11875;49.356;2.718;2023-05-21T07:53:09;18.80;99.90
23405;DHT22;11875;49.356;2.718;2023-05-21T07:55:35;19.00;99.90
23405;DHT22;11875;49.356;2.718;2023-05-21T07:58:00;19.20;99.90
23405;DHT22;11875;49.356;2.718;2023-05-21T08:00:26;19.30;99.90
23405;DHT22;11875;49.356;2.718;2023-05-21T08:02:52;19.40;99.90
23405;DHT22;11875;49.356;2.718;2023-05-21T08:05:18;19.40;99.90
23405;DHT22;11875;49.356;2.718;2023-05-21T08:07:44;19.50;99.90
23405;DHT22;11875;49.356;2.718;2023-05-21T08:10:10;19.70;99.90
23405;DHT22;11875;49.356;2.718;2023-05-21T08:12:36;19.80;99.90
23405;DHT22;11875;49.356;2.718;2023-05-21T08:15:01;19.80;99.90
23405;DHT22;11875;49.356;2.718;2023-05-21T08:17:27;19.90;99.90
23405;DHT22;11875;49.356;2.718;2023-05-21T08:19:53;19.90;99.90
23405;DHT22;11875;49.356;2.718;2023-05-21T08:22:18;20.10;99.90
23405;DHT22;11875;49.356;2.718;2023-05-21T08:24:44;20.10;99.90
23405;DHT22;11875;49.356;2.718;2023-05-21T08:27:10;20.10;99.90
23405;DHT22;11875;49.356;2.718;2023-05-21T08:29:36;20.10;99.90
23405;DHT22;11875;49.356;2.718;2023-05-21T08:32:02;20.30;99.90
23405;DHT22;11875;49.356;2.718;2023-05-21T08:34:27;20.40;99.90
23405;DHT22;11875;49.356;2.718;2023-05-21T08:36:54;20.60;99.90
23405;DHT22;11875;49.356;2.718;2023-05-21T08:39:19;20.60;99.90
23405;DHT22;11875;49.356;2.718;2023-05-21T08:41:46;20.70;99.90
23405;DHT22;11875;49.356;2.718;2023-05-21T08:44:19;20.90;99.90
23405;DHT22;11875;49.356;2.718;2023-05-21T08:46:48;21.00;99.90
23405;DHT22;11875;49.356;2.718;2023-05-21T08:49:16;21.10;99.90
23405;DHT22;11875;49.356;2.718;2023-05-21T08:51:44;21.30;99.90
23405;DHT22;11875;49.356;2.718;2023-05-21T08:54:10;21.30;99.90
23405;DHT22;11875;49.356;2.718;2023-05-21T08:56:39;21.20;99.90
23405;DHT22;11875;49.356;2.718;2023-05-21T08:59:10;21.20;99.90
23405;DHT22;11875;49.356;2.718;2023-05-21T09:01:36;21.20;99.90
23405;DHT22;11875;49.356;2.718;2023-05-21T09:04:03;21.30;99.90
23405;DHT22;11875;49.356;2.718;2023-05-21T09:06:29;21.30;99.90
23405;DHT22;11875;49.356;2.718;2023-05-21T09:09:16;21.40;99.90
23405;DHT22;11875;49.356;2.718;2023-05-21T09:11:43;21.50;99.90
23405;DHT22;11875;49.356;2.718;2023-05-21T09:14:10;21.60;99.90
23405;DHT22;11875;49.356;2.718;2023-05-21T09:16:36;21.80;99.90
23405;DHT22;11875;49.356;2.718;2023-05-21T09:19:02;21.90;99.90
23405;DHT22;11875;49.356;2.718;2023-05-21T09:21:29;21.10;99.90
23405;DHT22;11875;49.356;2.718;2023-05-21T09:23:59;21.90;99.90
23405;DHT22;11875;49.356;2.718;2023-05-21T09:26:25;21.90;99.90
23405;DHT22;11875;49.356;2.718;2023-05-21T09:28:56;21.90;99.90
23405;DHT22;11875;49.356;2.718;2023-05-21T09:31:22;21.80;99.90
23405;DHT22;11875;49.356;2.718;2023-05-21T09:33:49;21.90;99.90
23405;DHT22;11875;49.356;2.718;2023-05-21T09:36:18;21.80;99.90
23405;DHT22;11875;49.356;2.718;2023-05-21T09:38:47;21.80;99.90
23405;DHT22;11875;49.356;2.718;2023-05-21T09:41:13;21.80;99.90
23405;DHT22;11875;49.356;2.718;2023-05-21T09:43:41;21.70;99.90
23405;DHT22;11875;49.356;2.718;2023-05-21T09:46:08;21.80;99.90
23405;DHT22;11875;49.356;2.718;2023-05-21T09:48:40;21.90;99.90
23405;DHT22;11875;49.356;2.718;2023-05-21T09:53:33;22.10;99.90
23405;DHT22;11875;49.356;2.718;2023-05-21T09:55:58;22.20;99.90
23405;DHT22;11875;49.356;2.718;2023-05-21T09:58:24;22.30;99.90
23405;DHT22;11875;49.356;2.718;2023-05-21T10:00:51;22.50;99.90
23405;DHT22;11875;49.356;2.718;2023-05-21T10:03:18;22.60;99.90
23405;DHT22;11875;49.356;2.718;2023-05-21T10:05:48;22.50;99.90
23405;DHT22;11875;49.356;2.718;2023-05-21T10:08:17;22.50;99.90
23405;DHT22;11875;49.356;2.718;2023-05-21T10:10:48;22.50;99.90
23405;DHT22;11875;49.356;2.718;2023-05-21T10:13:17;22.50;99.90
23405;DHT22;11875;49.356;2.718;2023-05-21T10:15:49;22.50;99.90
23405;DHT22;11875;49.356;2.718;2023-05-21T10:18:18;22.50;99.90
23405;DHT22;11875;49.356;2.718;2023-05-21T10:20:46;22.50;99.90
23405;DHT22;11875;49.356;2.718;2023-05-21T10:23:12;22.60;99.90
23405;DHT22;11875;49.356;2.718;2023-05-21T10:25:38;22.80;99.90
23405;DHT22;11875;49.356;2.718;2023-05-21T10:28:05;22.90;99.90
23405;DHT22;11875;49.356;2.718;2023-05-21T10:30:31;22.80;99.90
23405;DHT22;11875;49.356;2.718;2023-05-21T10:33:00;22.70;99.90
23405;DHT22;11875;49.356;2.718;2023-05-21T10:35:26;22.60;99.90
23405;DHT22;11875;49.356;2.718;2023-05-21T10:37:53;22.60;99.90
23405;DHT22;11875;49.356;2.718;2023-05-21T10:40:19;22.70;99.90
23405;DHT22;11875;49.356;2.718;2023-05-21T10:43:01;22.70;99.90
23405;DHT22;11875;49.356;2.718;2023-05-21T10:45:48;22.80;99.90
23405;DHT22;11875;49.356;2.718;2023-05-21T10:48:39;22.80;99.90
23405;DHT22;11875;49.356;2.718;2023-05-21T10:51:19;23.00;99.90
23405;DHT22;11875;49.356;2.718;2023-05-21T10:54:13;23.10;99.90
23405;DHT22;11875;49.356;2.718;2023-05-21T10:56:47;23.20;99.90
23405;DHT22;11875;49.356;2.718;2023-05-21T11:01:48;23.40;99.90
23405;DHT22;11875;49.356;2.718;2023-05-21T11:04:21;23.40;99.90
23405;DHT22;11875;49.356;2.718;2023-05-21T11:06:48;23.40;99.90
23405;DHT22;11875;49.356;2.718;2023-05-21T11:09:14;23.40;99.90
23405;DHT22;11875;49.356;2.718;2023-05-21T11:14:41;23.40;99.90
23405;DHT22;11875;49.356;2.718;2023-05-21T11:17:39;23.40;99.90
23405;DHT22;11875;49.356;2.718;2023-05-21T11:20:12;23.30;99.90
23405;DHT22;11875;49.356;2.718;2023-05-21T11:22:38;23.40;99.90
23405;DHT22;11875;49.356;2.718;2023-05-21T11:25:04;23.40;99.90
23405;DHT22;11875;49.356;2.718;2023-05-21T11:27:32;23.30;99.90
23405;DHT22;11875;49.356;2.718;2023-05-21T11:29:58;23.20;99.90
23405;DHT22;11875;49.356;2.718;2023-05-21T11:32:24;23.10;99.90
23405;DHT22;11875;49.356;2.718;2023-05-21T11:34:50;22.50;99.90
23405;DHT22;11875;49.356;2.718;2023-05-21T11:39:49;23.60;99.90
23405;DHT22;11875;49.356;2.718;2023-05-21T11:42:37;23.70;99.90
23405;DHT22;11875;49.356;2.718;2023-05-21T11:45:04;23.90;99.90
23405;DHT22;11875;49.356;2.718;2023-05-21T11:47:30;23.90;99.90
23405;DHT22;11875;49.356;2.718;2023-05-21T11:50:00;24.00;99.90
23405;DHT22;11875;49.356;2.718;2023-05-21T11:52:30;24.00;99.90
23405;DHT22;11875;49.356;2.718;2023-05-21T11:54:57;23.90;99.90
23405;DHT22;11875;49.356;2.718;2023-05-21T11:57:27;23.90;99.90
23405;DHT22;11875;49.356;2.718;2023-05-21T11:59:57;23.90;99.90
23405;DHT22;11875;49.356;2.718;2023-05-21T12:02:24;24.00;99.90
23405;DHT22;11875;49.356;2.718;2023-05-21T12:04:51;24.10;99.90
23405;DHT22;11875;49.356;2.718;2023-05-21T12:07:18;24.20;99.90
23405;DHT22;11875;49.356;2.718;2023-05-21T12:09:48;24.20;99.90
23405;DHT22;11875;49.356;2.718;2023-05-21T12:12:24;24.20;99.90
23405;DHT22;11875;49.356;2.718;2023-05-21T12:14:52;24.10;99.90
23405;DHT22;11875;49.356;2.718;2023-05-21T12:17:19;24.10;99.90
23405;DHT22;11875;49.356;2.718;2023-05-21T12:19:46;23.30;99.90
23405;DHT22;11875;49.356;2.718;2023-05-21T12:22:12;24.30;99.90
23405;DHT22;11875;49.356;2.718;2023-05-21T12:24:39;24.30;99.90
23405;DHT22;11875;49.356;2.718;2023-05-21T12:27:06;24.40;99.90
23405;DHT22;11875;49.356;2.718;2023-05-21T12:29:38;24.60;99.90
23405;DHT22;11875;49.356;2.718;2023-05-21T12:32:07;24.60;99.90
23405;DHT22;11875;49.356;2.718;2023-05-21T12:34:50;24.60;99.90
23405;DHT22;11875;49.356;2.718;2023-05-21T12:37:23;24.40;99.90
23405;DHT22;11875;49.356;2.718;2023-05-21T12:39:51;24.30;99.90
23405;DHT22;11875;49.356;2.718;2023-05-21T12:42:28;24.30;99.90
23405;DHT22;11875;49.356;2.718;2023-05-21T12:45:04;24.20;99.90
23405;DHT22;11875;49.356;2.718;2023-05-21T12:47:31;24.20;99.90
23405;DHT22;11875;49.356;2.718;2023-05-21T12:49:58;24.40;99.90
23405;DHT22;11875;49.356;2.718;2023-05-21T12:52:24;24.50;99.90
23405;DHT22;11875;49.356;2.718;2023-05-21T12:54:53;24.60;99.90
23405;DHT22;11875;49.356;2.718;2023-05-21T12:57:20;24.60;99.90
23405;DHT22;11875;49.356;2.718;2023-05-21T12:59:56;24.70;99.90
23405;DHT22;11875;49.356;2.718;2023-05-21T13:02:25;24.90;99.90
23405;DHT22;11875;49.356;2.718;2023-05-21T13:04:56;25.10;99.90
23405;DHT22;11875;49.356;2.718;2023-05-21T13:07:23;25.10;99.90
23405;DHT22;11875;49.356;2.718;2023-05-21T13:09:49;25.00;99.90
23405;DHT22;11875;49.356;2.718;2023-05-21T13:12:17;24.80;99.90
23405;DHT22;11875;49.356;2.718;2023-05-21T13:14:43;24.70;99.90
23405;DHT22;11875;49.356;2.718;2023-05-21T13:17:08;24.60;99.90
23405;DHT22;11875;49.356;2.718;2023-05-21T13:19:35;24.40;99.90
23405;DHT22;11875;49.356;2.718;2023-05-21T13:22:01;24.50;99.90
23405;DHT22;11875;49.356;2.718;2023-05-21T13:24:27;24.60;99.90
23405;DHT22;11875;49.356;2.718;2023-05-21T13:26:52;24.70;99.90
23405;DHT22;11875;49.356;2.718;2023-05-21T13:29:18;24.60;99.90
23405;DHT22;11875;49.356;2.718;2023-05-21T13:31:44;24.40;99.90
23405;DHT22;11875;49.356;2.718;2023-05-21T13:34:11;24.30;99.90
23405;DHT22;11875;49.356;2.718;2023-05-21T13:36:37;24.30;99.90
23405;DHT22;11875;49.356;2.718;2023-05-21T13:39:03;24.50;99.90
23405;DHT22;11875;49.356;2.718;2023-05-21T13:41:29;24.60;99.90
23405;DHT22;11875;49.356;2.718;2023-05-21T13:43:54;24.80;99.90
23405;DHT22;11875;49.356;2.718;2023-05-21T13:46:20;24.90;99.90
23405;DHT22;11875;49.356;2.718;2023-05-21T13:48:46;24.80;99.90
23405;DHT22;11875;49.356;2.718;2023-05-21T13:51:11;24.70;99.90
23405;DHT22;11875;49.356;2.718;2023-05-21T13:53:37;24.80;99.90
23405;DHT22;11875;49.356;2.718;2023-05-21T13:56:03;24.90;99.90
23405;DHT22;11875;49.356;2.718;2023-05-21T13:58:29;24.90;99.90
23405;DHT22;11875;49.356;2.718;2023-05-21T14:00:59;24.90;99.90
23405;DHT22;11875;49.356;2.718;2023-05-21T14:03:25;24.80;99.90
23405;DHT22;11875;49.356;2.718;2023-05-21T14:05:52;24.70;99.90
23405;DHT22;11875;49.356;2.718;2023-05-21T14:08:18;24.50;99.90
23405;DHT22;11875;49.356;2.718;2023-05-21T14:10:45;24.40;99.90
23405;DHT22;11875;49.356;2.718;2023-05-21T14:13:12;24.50;99.90
23405;DHT22;11875;49.356;2.718;2023-05-21T14:15:37;24.70;99.90
23405;DHT22;11875;49.356;2.718;2023-05-21T14:18:04;24.60;99.90
23405;DHT22;11875;49.356;2.718;2023-05-21T14:20:33;24.60;99.90
23405;DHT22;11875;49.356;2.718;2023-05-21T14:22:58;24.50;99.90
23405;DHT22;11875;49.356;2.718;2023-05-21T14:25:24;24.40;99.90
23405;DHT22;11875;49.356;2.718;2023-05-21T14:27:49;24.30;99.90
23405;DHT22;11875;49.356;2.718;2023-05-21T14:30:15;24.30;99.90
23405;DHT22;11875;49.356;2.718;2023-05-21T14:32:41;24.40;99.90
23405;DHT22;11875;49.356;2.718;2023-05-21T14:35:06;24.40;99.90
23405;DHT22;11875;49.356;2.718;2023-05-21T14:37:32;24.50;99.90
23405;DHT22;11875;49.356;2.718;2023-05-21T14:39:58;24.70;99.90
23405;DHT22;11875;49.356;2.718;2023-05-21T14:42:23;24.80;99.90
23405;DHT22;11875;49.356;2.718;2023-05-21T14:44:49;24.90;99.90
23405;DHT22;11875;49.356;2.718;2023-05-21T14:47:14;24.90;99.90
23405;DHT22;11875;49.356;2.718;2023-05-21T14:49:40;24.90;99.90
23405;DHT22;11875;49.356;2.718;2023-05-21T14:52:06;24.80;99.90
23405;DHT22;11875;49.356;2.718;2023-05-21T14:54:31;24.30;99.90
23405;DHT22;11875;49.356;2.718;2023-05-21T14:56:57;24.80;99.90
23405;DHT22;11875;49.356;2.718;2023-05-21T14:59:22;24.90;99.90
23405;DHT22;11875;49.356;2.718;2023-05-21T15:01:48;24.80;99.90
23405;DHT22;11875;49.356;2.718;2023-05-21T15:04:14;24.80;99.90
23405;DHT22;11875;49.356;2.718;2023-05-21T15:06:40;24.70;99.90
23405;DHT22;11875;49.356;2.718;2023-05-21T15:09:06;24.70;99.90
23405;DHT22;11875;49.356;2.718;2023-05-21T15:11:31;24.60;99.90
23405;DHT22;11875;49.356;2.718;2023-05-21T15:13:58;24.60;99.90
23405;DHT22;11875;49.356;2.718;2023-05-21T15:16:24;24.70;99.90
23405;DHT22;11875;49.356;2.718;2023-05-21T15:18:51;24.60;99.90
23405;DHT22;11875;49.356;2.718;2023-05-21T15:21:17;24.60;99.90
23405;DHT22;11875;49.356;2.718;2023-05-21T15:23:42;24.80;99.90
23405;DHT22;11875;49.356;2.718;2023-05-21T15:26:08;24.80;99.90
23405;DHT22;11875;49.356;2.718;2023-05-21T15:28:34;24.80;99.90
23405;DHT22;11875;49.356;2.718;2023-05-21T15:30:59;24.50;99.90
23405;DHT22;11875;49.356;2.718;2023-05-21T15:33:25;24.50;99.90
23405;DHT22;11875;49.356;2.718;2023-05-21T15:35:51;24.50;99.90
23405;DHT22;11875;49.356;2.718;2023-05-21T15:38:16;24.70;99.90
23405;DHT22;11875;49.356;2.718;2023-05-21T15:40:42;24.80;99.90
23405;DHT22;11875;49.356;2.718;2023-05-21T15:43:08;24.60;99.90
23405;DHT22;11875;49.356;2.718;2023-05-21T15:45:33;24.60;99.90